Fairfax, South Carolina
Current Conditions -  °F | °C
As of 11:35 AM on Thursday 29 Jan 2015 (Local Time) from KAQX Reporting Station
Clear Clear  
Wind Chill: 50°   Ceiling: Unl
Heat Index: 50°   Visibility: 10mi
Dew Point: 23°   Wind: 6mph
Humidity: 35%   Direction: 170°S
Pressure: 30.34"   Gusts: 12mph
Location:  32.96°N, 81.24°W
Report Text: KAQX 291635Z AUTO 17005G10KT 10SM CLR 10/M05 A3034 RMK AO2
Loading
Personal Weather Stations






























Interactive Weather Map New forecast layout! Learn more

10-Day Weather Forecast

Advertisements
Track Severe Weather on mobile